Time;durP1;ratioP1;P1;durP2;ratioP2;P2;SDS_P1;SDS_P2;PMS_P1;PMS_P2;Temp;Humidity;BMP_temperature;BMP_pressure;BME280_temperature;BME280_humidity;BME280_pressure;Samples;Min_cycle;Max_cycle;Signal;HPM_P1;HPM_P2
2021/07/05 00:02:22;;;;;;;17.27;7.37;;;17.80;87.00;;;;;;4986221;28;20218;-84
2021/07/05 00:04:48;;;;;;;10.10;5.20;;;17.80;87.20;;;;;;4986819;28;20429;-84
2021/07/05 00:07:25;;;;;;;21.63;6.93;;;17.80;87.60;;;;;;5006393;28;20422;-84
2021/07/05 00:09:50;;;;;;;21.85;6.60;;;17.80;87.80;;;;;;4987258;28;20179;-84
2021/07/05 00:12:16;;;;;;;13.27;7.50;;;17.80;87.60;;;;;;4986207;28;20211;-85
2021/07/05 00:14:42;;;;;;;19.60;7.33;;;17.90;87.50;;;;;;4986810;28;20179;-84
2021/07/05 00:17:07;;;;;;;18.43;8.13;;;17.90;87.60;;;;;;4987678;28;20207;-84
2021/07/05 00:19:33;;;;;;;18.17;6.80;;;18.00;87.80;;;;;;4988310;28;20562;-84
2021/07/05 00:21:59;;;;;;;21.80;7.17;;;18.00;88.00;;;;;;4988344;28;20223;-85
2021/07/05 00:24:24;;;;;;;11.97;6.30;;;18.00;88.20;;;;;;5006888;28;20182;-84
2021/07/05 00:26:50;;;;;;;10.13;6.57;;;18.00;88.30;;;;;;4989839;28;20238;-85
2021/07/05 00:29:16;;;;;;;13.77;5.07;;;18.00;88.20;;;;;;5007641;28;20179;-84
2021/07/05 00:31:42;;;;;;;9.33;5.17;;;18.10;88.30;;;;;;4989476;28;20567;-84
2021/07/05 00:34:07;;;;;;;13.80;5.40;;;18.10;88.00;;;;;;4990788;28;20187;-84
2021/07/05 00:36:33;;;;;;;7.27;4.90;;;18.10;88.10;;;;;;4991809;28;20430;-85
2021/07/05 00:38:59;;;;;;;7.47;5.43;;;18.10;88.30;;;;;;4996412;28;20453;-83
2021/07/05 00:41:25;;;;;;;7.60;4.80;;;18.30;87.10;;;;;;4994451;28;20307;-84
2021/07/05 00:43:50;;;;;;;6.13;3.87;;;18.30;85.70;;;;;;5008408;28;20206;-85
2021/07/05 00:46:16;;;;;;;4.67;3.90;;;18.20;85.80;;;;;;4991419;28;20195;-84
2021/07/05 00:48:42;;;;;;;6.00;4.23;;;18.10;86.30;;;;;;4994832;28;20174;-84
2021/07/05 00:51:08;;;;;;;5.87;3.50;;;18.20;86.60;;;;;;4999866;28;20530;-84
2021/07/05 00:53:34;;;;;;;5.07;4.30;;;18.10;86.80;;;;;;5000279;28;20497;-84
2021/07/05 00:56:00;;;;;;;5.83;4.10;;;18.00;87.10;;;;;;5000170;28;20191;-84
2021/07/05 00:58:26;;;;;;;7.63;3.40;;;18.00;87.50;;;;;;5016403;28;20461;-84
2021/07/05 01:00:52;;;;;;;7.60;4.37;;;18.00;87.60;;;;;;5016332;28;20191;-84
2021/07/05 01:03:17;;;;;;;6.50;4.57;;;17.90;87.60;;;;;;4999633;28;20195;-84
2021/07/05 01:05:43;;;;;;;7.07;3.50;;;17.90;87.90;;;;;;5016779;28;20406;-84
2021/07/05 01:08:09;;;;;;;9.03;4.40;;;18.00;87.80;;;;;;5017007;28;20254;-84
2021/07/05 01:10:35;;;;;;;6.17;4.07;;;18.00;87.70;;;;;;4990683;28;20437;-84
2021/07/05 01:13:01;;;;;;;5.60;4.38;;;18.00;87.90;;;;;;5002189;28;20230;-84
2021/07/05 01:15:30;;;;;;;5.47;4.15;;;18.00;88.00;;;;;;5003615;28;20175;-84
2021/07/05 01:17:58;;;;;;;8.77;3.58;;;18.00;87.80;;;;;;5006201;28;20183;-84
2021/07/05 01:20:27;;;;;;;4.75;3.65;;;17.90;87.70;;;;;;4989592;28;20179;-84
2021/07/05 01:22:53;;;;;;;9.73;3.80;;;17.90;87.50;;;;;;4987416;28;20240;-84
2021/07/05 01:25:22;;;;;;;6.50;4.25;;;17.90;87.40;;;;;;4981170;28;20297;-84
2021/07/05 01:27:48;;;;;;;5.95;3.78;;;18.00;87.50;;;;;;4997523;28;20206;-84
2021/07/05 01:30:17;;;;;;;9.60;4.55;;;18.00;87.50;;;;;;5000186;28;20179;-84
2021/07/05 01:32:45;;;;;;;8.98;3.95;;;17.90;87.60;;;;;;5002549;28;20203;-84
2021/07/05 01:35:11;;;;;;;5.40;4.05;;;17.90;87.70;;;;;;4996866;28;20175;-84
2021/07/05 01:37:38;;;;;;;5.70;3.70;;;17.90;88.50;;;;;;4983597;28;20183;-84
2021/07/05 01:40:13;;;;;;;11.13;4.30;;;17.90;87.70;;;;;;4992420;28;20187;-84
2021/07/05 01:42:38;;;;;;;5.65;4.18;;;17.80;87.60;;;;;;5002823;28;20210;-84
2021/07/05 01:45:05;;;;;;;7.50;4.57;;;17.90;87.70;;;;;;4999778;28;20179;-84
2021/07/05 01:47:31;;;;;;;11.40;4.82;;;17.80;87.70;;;;;;4982851;28;20175;-84
2021/07/05 01:49:57;;;;;;;10.57;4.90;;;17.80;87.70;;;;;;4999756;28;20230;-84
2021/07/05 01:52:22;;;;;;;7.07;4.73;;;17.80;87.60;;;;;;4981123;28;20221;-84
2021/07/05 01:54:48;;;;;;;9.57;4.40;;;17.90;87.50;;;;;;4999561;28;20182;-84
2021/07/05 01:57:26;;;;;;;5.60;4.30;;;17.80;87.20;;;;;;4981990;28;20187;-84
2021/07/05 01:59:58;;;;;;;6.60;4.30;;;17.80;87.10;;;;;;4981072;28;20214;-84
2021/07/05 02:02:25;;;;;;;7.38;4.82;;;17.90;87.10;;;;;;4998104;28;20241;-84
2021/07/05 02:04:52;;;;;;;12.13;4.15;;;17.80;87.10;;;;;;4981393;28;20179;-84
2021/07/05 02:07:19;;;;;;;8.27;4.70;;;17.80;87.10;;;;;;4999508;28;20179;-84
2021/07/05 02:09:46;;;;;;;8.07;4.60;;;17.80;86.30;;;;;;4982356;28;20176;-84
2021/07/05 02:12:12;;;;;;;9.82;3.55;;;17.70;86.00;;;;;;4981055;28;20199;-84
2021/07/05 02:14:42;;;;;;;8.25;4.35;;;17.70;86.20;;;;;;4981730;28;20179;-84
2021/07/05 02:17:11;;;;;;;11.70;4.57;;;17.70;86.40;;;;;;4981573;28;20206;-84
2021/07/05 02:19:38;;;;;;;8.52;4.47;;;17.80;85.80;;;;;;4982061;28;20194;-84
2021/07/05 02:22:05;;;;;;;6.07;4.00;;;17.80;85.70;;;;;;4981154;28;20690;-84
2021/07/05 02:24:31;;;;;;;6.45;4.13;;;17.80;86.00;;;;;;4984085;28;20202;-84
2021/07/05 02:26:56;;;;;;;17.77;4.87;;;17.70;86.00;;;;;;4988039;28;20187;-84
2021/07/05 02:29:22;;;;;;;8.73;4.27;;;17.70;86.20;;;;;;4985710;28;20417;-84
2021/07/05 02:31:48;;;;;;;16.70;5.30;;;17.60;86.20;;;;;;4982393;28;20696;-85
2021/07/05 02:34:14;;;;;;;13.33;3.77;;;17.70;86.20;;;;;;4999299;28;20430;-84
2021/07/05 02:36:39;;;;;;;7.17;4.47;;;17.60;85.90;;;;;;4981863;28;20418;-85
2021/07/05 02:39:06;;;;;;;6.37;4.53;;;17.60;86.00;;;;;;4981739;28;20713;-84
2021/07/05 02:41:33;;;;;;;13.00;4.50;;;17.60;86.10;;;;;;4980815;28;20241;-84
2021/07/05 02:43:59;;;;;;;6.32;4.63;;;17.70;86.00;;;;;;4981539;28;20266;-84
2021/07/05 02:46:24;;;;;;;9.13;4.40;;;17.60;86.00;;;;;;4999045;28;20621;-84
2021/07/05 02:48:50;;;;;;;10.70;3.93;;;17.60;86.10;;;;;;4981439;28;20290;-84
2021/07/05 02:51:16;;;;;;;8.83;4.60;;;17.60;86.40;;;;;;4998126;28;20194;-84
2021/07/05 02:53:43;;;;;;;7.93;4.25;;;17.70;86.60;;;;;;4982274;28;20186;-84
2021/07/05 02:56:09;;;;;;;9.82;4.82;;;17.60;86.20;;;;;;4998304;28;20187;-84
2021/07/05 02:58:35;;;;;;;10.10;5.90;;;17.60;86.30;;;;;;4999029;28;20515;-84
2021/07/05 03:01:04;;;;;;;9.57;4.40;;;17.50;86.40;;;;;;4980810;28;20783;-84
2021/07/05 03:03:30;;;;;;;8.27;4.78;;;17.50;86.30;;;;;;4982231;28;20199;-84
2021/07/05 03:05:56;;;;;;;8.13;4.80;;;17.50;86.40;;;;;;4999066;28;20536;-84
2021/07/05 03:08:21;;;;;;;10.90;4.77;;;17.50;86.50;;;;;;4981464;28;20422;-84
2021/07/05 03:10:47;;;;;;;16.07;4.40;;;17.50;86.50;;;;;;4982181;28;20550;-84
2021/07/05 03:13:16;;;;;;;18.07;4.63;;;17.50;86.70;;;;;;4984811;28;20318;-84
2021/07/05 03:15:43;;;;;;;7.13;4.63;;;17.70;86.40;;;;;;4985121;28;20175;-84
2021/07/05 03:18:10;;;;;;;11.82;4.80;;;17.70;85.80;;;;;;4985265;28;20629;-84
2021/07/05 03:20:39;;;;;;;8.13;4.00;;;17.70;85.50;;;;;;4994491;28;20175;-84
2021/07/05 03:23:07;;;;;;;7.13;4.57;;;17.60;85.90;;;;;;4989851;28;20186;-84
2021/07/05 03:25:35;;;;;;;10.98;4.45;;;17.50;85.90;;;;;;5003775;28;20539;-84
2021/07/05 03:28:02;;;;;;;11.35;4.25;;;17.60;85.80;;;;;;4986340;28;20183;-84
2021/07/05 03:30:28;;;;;;;5.10;3.15;;;17.60;85.70;;;;;;5002860;28;20171;-84
2021/07/05 03:32:54;;;;;;;27.17;5.80;;;17.70;85.60;;;;;;4986026;28;20206;-84
2021/07/05 03:35:21;;;;;;;6.82;4.18;;;17.80;85.20;;;;;;4986750;28;20206;-84
2021/07/05 03:37:48;;;;;;;12.95;4.47;;;17.70;84.40;;;;;;4986002;28;20559;-84
2021/07/05 03:40:18;;;;;;;10.00;3.28;;;17.70;84.70;;;;;;4985991;28;20254;-84
2021/07/05 03:42:45;;;;;;;8.77;5.05;;;17.70;85.00;;;;;;4986013;28;20270;-84
2021/07/05 03:45:13;;;;;;;10.95;4.40;;;17.80;84.80;;;;;;4987095;28;20647;-84
2021/07/05 03:47:38;;;;;;;18.00;3.75;;;17.90;83.70;;;;;;4987590;28;20184;-84
2021/07/05 03:50:07;;;;;;;9.17;3.87;;;17.80;83.70;;;;;;4988111;28;20226;-84
2021/07/05 03:52:32;;;;;;;6.78;3.75;;;17.70;84.10;;;;;;4988773;28;20209;-84
2021/07/05 03:54:58;;;;;;;5.60;3.80;;;17.60;84.50;;;;;;4990243;28;20214;-84
2021/07/05 03:57:26;;;;;;;6.03;3.47;;;17.70;83.70;;;;;;4990871;28;20207;-84
2021/07/05 03:59:57;;;;;;;12.02;4.10;;;17.70;84.00;;;;;;4991144;28;20836;-84
2021/07/05 04:02:23;;;;;;;9.77;4.18;;;17.70;84.30;;;;;;4983977;28;20226;-84
2021/07/05 04:04:50;;;;;;;10.32;4.03;;;17.60;84.50;;;;;;4983376;28;20655;-84
2021/07/05 04:07:18;;;;;;;8.65;3.67;;;17.70;85.00;;;;;;4982067;28;20190;-84
2021/07/05 04:09:44;;;;;;;9.27;3.85;;;17.80;84.70;;;;;;4983490;28;20659;-84
2021/07/05 04:12:11;;;;;;;6.83;3.43;;;17.80;83.50;;;;;;4985937;28;20230;-84
2021/07/05 04:14:38;;;;;;;9.32;4.80;;;17.80;83.30;;;;;;4990690;28;20184;-83
2021/07/05 04:17:04;;;;;;;8.85;5.05;;;18.00;82.50;;;;;;4993236;28;20209;-83
2021/07/05 04:19:30;;;;;;;13.23;4.07;;;18.00;81.40;;;;;;5009895;28;20665;-84
2021/07/05 04:21:56;;;;;;;9.27;4.63;;;18.00;81.40;;;;;;5002120;28;20462;-84
2021/07/05 04:24:22;;;;;;;8.60;4.70;;;17.90;82.10;;;;;;4985032;28;20203;-84
2021/07/05 04:26:48;;;;;;;14.40;5.83;;;18.10;81.60;;;;;;4984163;28;20466;-84
2021/07/05 04:29:14;;;;;;;16.03;4.57;;;18.10;80.50;;;;;;4984026;28;20222;-84
2021/07/05 04:31:40;;;;;;;11.75;6.18;;;18.00;80.70;;;;;;5001617;28;20485;-84
2021/07/05 04:34:06;;;;;;;11.13;6.30;;;17.80;82.00;;;;;;4984555;28;20194;-84
2021/07/05 04:36:32;;;;;;;15.27;6.07;;;17.90;83.10;;;;;;5001724;28;20201;-84
2021/07/05 04:38:57;;;;;;;11.53;5.80;;;17.70;83.50;;;;;;5002048;28;20222;-84
2021/07/05 04:41:23;;;;;;;13.03;6.77;;;17.70;84.50;;;;;;4984849;28;20920;-84
2021/07/05 04:43:49;;;;;;;14.70;6.43;;;17.70;85.30;;;;;;4984381;28;20391;-84
2021/07/05 04:46:16;;;;;;;18.02;5.85;;;17.80;85.20;;;;;;4985221;28;20190;-84
2021/07/05 04:48:42;;;;;;;11.73;5.30;;;18.00;83.10;;;;;;4984022;28;20182;-84
2021/07/05 04:51:10;;;;;;;4.93;4.30;;;18.00;81.60;;;;;;4984123;28;20207;-84
2021/07/05 04:53:36;;;;;;;9.18;4.80;;;18.00;82.10;;;;;;4984199;28;20236;-84
2021/07/05 04:56:03;;;;;;;9.30;4.75;;;18.00;81.70;;;;;;4984162;28;20226;-83
2021/07/05 04:58:29;;;;;;;9.35;4.93;;;17.90;82.30;;;;;;5000950;28;20626;-84
2021/07/05 05:00:54;;;;;;;11.87;4.77;;;18.00;82.80;;;;;;5001129;28;20206;-84
2021/07/05 05:03:20;;;;;;;8.80;4.67;;;18.10;82.60;;;;;;4984617;28;20442;-84
2021/07/05 05:05:46;;;;;;;10.60;5.13;;;17.90;83.00;;;;;;4984364;28;20178;-83
2021/07/05 05:08:12;;;;;;;9.10;4.33;;;18.20;82.50;;;;;;5006330;28;20472;-84
2021/07/05 05:10:40;;;;;;;3.65;3.35;;;18.10;80.80;;;;;;5006458;28;20171;-84
2021/07/05 05:13:06;;;;;;;8.70;4.22;;;18.20;80.60;;;;;;4986384;28;20596;-83
2021/07/05 05:15:32;;;;;;;5.68;3.25;;;18.20;80.30;;;;;;4985394;28;20183;-83
2021/07/05 05:17:58;;;;;;;9.07;4.00;;;18.10;80.80;;;;;;4984986;28;20190;-84
2021/07/05 05:20:24;;;;;;;10.53;4.93;;;18.00;81.70;;;;;;5000781;28;20430;-84
2021/07/05 05:22:51;;;;;;;6.53;4.30;;;18.10;82.40;;;;;;4984791;28;20285;-83
2021/07/05 05:25:18;;;;;;;6.72;4.70;;;18.20;81.30;;;;;;4984289;28;20183;-84
2021/07/05 05:27:45;;;;;;;6.07;5.20;;;18.10;80.70;;;;;;4985051;28;20647;-84
2021/07/05 05:30:12;;;;;;;6.65;4.60;;;18.20;80.70;;;;;;5000404;28;20183;-84
2021/07/05 05:32:38;;;;;;;9.38;5.10;;;18.20;80.50;;;;;;4984845;28;20203;-84
2021/07/05 05:35:06;;;;;;;6.53;4.33;;;18.20;80.90;;;;;;5000507;28;20207;-83
2021/07/05 05:37:33;;;;;;;4.97;3.67;;;18.30;81.60;;;;;;4984829;28;20422;-84
2021/07/05 05:39:59;;;;;;;8.32;4.43;;;18.20;82.10;;;;;;4984457;28;20210;-84
2021/07/05 05:42:25;;;;;;;15.07;4.17;;;18.30;82.70;;;;;;5000572;28;20230;-84
2021/07/05 05:44:51;;;;;;;11.07;4.10;;;18.50;82.00;;;;;;4997904;28;20171;-84
2021/07/05 05:47:17;;;;;;;5.80;3.17;;;18.60;81.30;;;;;;5001879;28;20198;-83
2021/07/05 05:49:43;;;;;;;5.07;3.93;;;18.60;81.40;;;;;;5000480;28;20183;-84
2021/07/05 05:52:09;;;;;;;6.97;3.40;;;18.70;80.90;;;;;;4996012;28;20203;-84
2021/07/05 05:54:35;;;;;;;5.80;3.80;;;18.70;81.60;;;;;;5003514;28;20218;-84
2021/07/05 05:57:01;;;;;;;6.63;3.20;;;18.70;82.10;;;;;;4998338;28;20188;-84
2021/07/05 05:59:27;;;;;;;7.75;4.72;;;18.90;81.90;;;;;;4979761;28;20419;-84
2021/07/05 06:01:53;;;;;;;7.57;3.97;;;19.00;80.40;;;;;;4999745;28;20704;-83
2021/07/05 06:04:20;;;;;;;6.38;3.88;;;19.10;79.70;;;;;;4983961;28;20179;-85
2021/07/05 06:06:46;;;;;;;9.43;3.20;;;19.20;79.60;;;;;;5004179;28;20180;-84
2021/07/05 06:09:12;;;;;;;9.03;3.60;;;19.30;78.90;;;;;;4998522;28;20178;-84
2021/07/05 06:11:39;;;;;;;6.18;4.13;;;19.20;79.60;;;;;;4979327;28;20448;-84
2021/07/05 06:14:06;;;;;;;6.97;3.50;;;19.40;79.00;;;;;;4987853;28;20219;-84
2021/07/05 06:16:33;;;;;;;10.10;3.60;;;19.50;77.30;;;;;;4987012;28;20195;-83
2021/07/05 06:18:59;;;;;;;4.90;2.92;;;19.70;75.90;;;;;;5002537;28;20183;-84
2021/07/05 06:21:26;;;;;;;9.23;4.05;;;19.60;75.60;;;;;;4985830;28;20218;-83
2021/07/05 06:23:54;;;;;;;4.38;3.20;;;19.60;75.30;;;;;;5010158;28;20179;-84
2021/07/05 06:26:20;;;;;;;5.05;2.65;;;19.60;75.80;;;;;;5005323;28;20235;-84
2021/07/05 06:28:45;;;;;;;7.33;3.37;;;19.50;76.70;;;;;;4988626;28;20183;-85
2021/07/05 06:31:11;;;;;;;6.10;3.00;;;19.40;77.60;;;;;;5005141;28;20207;-84
2021/07/05 06:33:37;;;;;;;8.47;3.00;;;19.20;79.30;;;;;;4987547;28;20286;-84
2021/07/05 06:36:04;;;;;;;5.60;3.05;;;19.10;78.70;;;;;;5003100;28;20186;-84
2021/07/05 06:38:31;;;;;;;8.07;3.60;;;19.30;77.20;;;;;;5001190;28;20247;-84
2021/07/05 06:40:57;;;;;;;7.45;3.08;;;19.30;77.00;;;;;;4984575;28;20207;-83
2021/07/05 06:43:23;;;;;;;3.60;2.77;;;19.20;78.40;;;;;;4983852;28;20218;-84
2021/07/05 06:45:49;;;;;;;11.70;3.00;;;19.30;79.80;;;;;;4983383;28;20418;-84
2021/07/05 06:48:14;;;;;;;5.97;3.30;;;19.40;78.00;;;;;;5003319;28;20414;-83
2021/07/05 06:50:40;;;;;;;5.40;4.00;;;19.30;78.70;;;;;;5001962;28;20217;-84
2021/07/05 06:53:07;;;;;;;3.83;2.90;;;19.30;78.90;;;;;;5001525;28;20183;-84
2021/07/05 06:55:33;;;;;;;8.63;3.40;;;19.50;78.20;;;;;;4986881;28;20186;-84
2021/07/05 06:57:59;;;;;;;4.80;2.80;;;19.60;75.40;;;;;;4987644;28;20289;-84
2021/07/05 07:00:28;;;;;;;8.73;2.47;;;19.70;74.30;;;;;;5005193;28;20183;-84
2021/07/05 07:02:55;;;;;;;7.28;3.33;;;19.70;75.60;;;;;;4984199;28;20474;-84
2021/07/05 07:05:22;;;;;;;6.53;2.88;;;19.70;76.40;;;;;;5008140;28;20171;-84
2021/07/05 07:07:50;;;;;;;5.50;3.00;;;19.90;74.40;;;;;;4991296;28;20194;-84
2021/07/05 07:10:18;;;;;;;4.60;3.10;;;19.70;72.80;;;;;;4990793;28;20176;-86
2021/07/05 07:12:50;;;;;;;7.03;3.58;;;19.70;73.80;;;;;;4990417;28;20199;-84
2021/07/05 07:15:20;;;;;;;7.13;3.78;;;19.80;74.90;;;;;;5011687;28;20227;-84
2021/07/05 07:17:50;;;;;;;8.75;3.13;;;19.70;76.60;;;;;;4994060;28;20254;-83
2021/07/05 07:20:18;;;;;;;3.03;2.70;;;19.80;77.10;;;;;;4993688;28;20190;-85
2021/07/05 07:22:44;;;;;;;7.65;3.28;;;20.00;76.20;;;;;;5010842;28;20198;-83
2021/07/05 07:25:13;;;;;;;8.17;3.00;;;19.90;75.90;;;;;;4993003;28;20727;-83
2021/07/05 07:27:39;;;;;;;10.32;3.00;;;19.90;76.40;;;;;;5010546;28;20182;-84
2021/07/05 07:30:07;;;;;;;8.10;3.35;;;19.90;76.90;;;;;;4992888;28;20186;-84
2021/07/05 07:32:33;;;;;;;3.20;2.63;;;19.80;76.80;;;;;;4993132;28;20199;-84
2021/07/05 07:34:59;;;;;;;8.97;3.43;;;19.70;76.90;;;;;;4991445;28;20183;-84
2021/07/05 07:37:25;;;;;;;5.03;3.10;;;19.70;76.90;;;;;;4989384;28;20422;-84
2021/07/05 07:42:47;;;;;;;6.25;3.17;;;19.90;77.30;;;;;;4985480;28;20274;-84
2021/07/05 07:45:14;;;;;;;8.07;3.85;;;20.00;76.50;;;;;;4992659;28;20183;-84
2021/07/05 07:47:40;;;;;;;5.57;3.00;;;19.90;76.70;;;;;;4993010;28;20187;-84
2021/07/05 07:50:08;;;;;;;8.98;3.45;;;19.90;77.60;;;;;;4992522;28;20249;-83
2021/07/05 07:52:35;;;;;;;7.78;3.28;;;19.80;78.00;;;;;;4992262;28;20199;-84
2021/07/05 07:55:02;;;;;;;11.20;3.75;;;19.90;78.40;;;;;;4992406;28;20259;-83
2021/07/05 07:57:28;;;;;;;3.17;2.70;;;19.90;76.90;;;;;;5007476;28;20238;-84
2021/07/05 07:59:53;;;;;;;3.60;2.60;;;20.10;75.40;;;;;;4991998;28;20182;-84
2021/07/05 08:02:19;;;;;;;10.33;2.93;;;20.10;74.80;;;;;;4990730;28;20219;-84
2021/07/05 08:04:44;;;;;;;6.03;4.07;;;19.80;74.70;;;;;;4991729;28;20203;-83
2021/07/05 08:07:10;;;;;;;15.17;4.77;;;19.70;76.50;;;;;;4991510;28;20179;-85
2021/07/05 08:09:37;;;;;;;6.23;3.80;;;19.70;77.90;;;;;;5008116;28;20179;-84
2021/07/05 08:12:06;;;;;;;5.85;3.53;;;19.60;76.40;;;;;;5008452;28;20505;-83
2021/07/05 08:14:32;;;;;;;10.82;3.60;;;19.30;76.00;;;;;;4990069;28;20278;-84
2021/07/05 08:16:58;;;;;;;6.53;3.28;;;19.00;76.90;;;;;;4990238;28;20179;-84
2021/07/05 08:19:24;;;;;;;7.90;3.53;;;19.30;77.70;;;;;;4991038;28;20213;-84
2021/07/05 08:21:49;;;;;;;6.03;3.27;;;19.40;78.20;;;;;;4989773;28;20272;-84
2021/07/05 08:24:15;;;;;;;3.77;3.33;;;19.40;79.30;;;;;;4989911;28;20179;-84
2021/07/05 08:26:41;;;;;;;5.73;3.30;;;19.50;78.80;;;;;;4989706;28;20423;-84
2021/07/05 08:29:08;;;;;;;5.75;3.35;;;19.40;78.30;;;;;;4989837;28;20423;-84
2021/07/05 08:31:33;;;;;;;6.22;3.20;;;19.00;78.70;;;;;;4989035;28;20199;-84
2021/07/05 08:34:00;;;;;;;16.00;5.13;;;18.90;80.10;;;;;;4989547;28;20210;-83
2021/07/05 08:36:27;;;;;;;7.57;4.93;;;18.70;80.70;;;;;;4989927;28;20182;-84
2021/07/05 08:38:53;;;;;;;6.57;4.97;;;18.60;81.70;;;;;;4990151;28;20183;-83
2021/07/05 08:41:19;;;;;;;10.23;5.63;;;18.50;82.60;;;;;;4989137;28;20203;-84
2021/07/05 08:43:46;;;;;;;8.93;5.63;;;18.20;83.40;;;;;;4990180;28;20206;-84
2021/07/05 08:46:15;;;;;;;6.38;4.85;;;17.90;84.30;;;;;;5007918;28;20179;-84
2021/07/05 08:48:42;;;;;;;6.05;4.40;;;17.80;84.90;;;;;;4989233;28;20182;-83
2021/07/05 08:51:14;;;;;;;9.88;4.57;;;17.50;84.80;;;;;;4988573;28;20219;-84
2021/07/05 08:53:41;;;;;;;7.40;4.65;;;17.50;86.00;;;;;;5005931;28;20235;-83
2021/07/05 08:56:07;;;;;;;4.88;3.85;;;17.50;86.60;;;;;;4988567;28;20183;-83
2021/07/05 08:58:34;;;;;;;4.60;4.20;;;17.40;85.80;;;;;;5006944;28;20230;-83
2021/07/05 09:01:01;;;;;;;6.40;3.67;;;17.50;86.10;;;;;;5004786;28;20230;-84
2021/07/05 09:03:28;;;;;;;4.38;3.47;;;17.60;85.90;;;;;;4989209;28;20195;-84
2021/07/05 09:06:13;;;;;;;5.97;3.20;;;17.80;85.80;;;;;;4988507;28;20560;-83
2021/07/05 09:08:45;;;;;;;4.40;3.10;;;17.70;85.20;;;;;;4987133;28;20186;-84
2021/07/05 09:11:16;;;;;;;5.80;3.65;;;17.80;85.80;;;;;;5002224;28;20195;-84
2021/07/05 09:13:53;;;;;;;6.15;3.63;;;17.90;86.10;;;;;;5000896;28;20167;-84
2021/07/05 09:16:34;;;;;;;3.28;2.97;;;18.00;86.10;;;;;;4980985;28;20569;-85
2021/07/05 09:19:01;;;;;;;7.40;3.33;;;17.70;85.50;;;;;;4981294;28;20240;-84
2021/07/05 09:21:30;;;;;;;6.40;3.67;;;17.90;86.20;;;;;;4981243;28;20238;-85
2021/07/05 09:24:03;;;;;;;4.15;3.72;;;18.00;86.80;;;;;;4998326;28;20210;-84
2021/07/05 09:26:37;;;;;;;7.22;4.50;;;18.10;86.80;;;;;;4980864;28;20183;-85
2021/07/05 09:29:05;;;;;;;6.20;4.05;;;18.30;86.40;;;;;;4981869;28;20273;-85
2021/07/05 09:31:40;;;;;;;6.82;3.65;;;18.40;86.40;;;;;;4979688;28;20202;-85
2021/07/05 09:34:20;;;;;;;3.78;2.90;;;18.50;86.20;;;;;;4979398;28;20259;-85
2021/07/05 09:36:47;;;;;;;4.28;3.20;;;18.60;85.20;;;;;;4979934;28;20731;-85
2021/07/05 09:39:22;;;;;;;4.30;3.20;;;18.90;84.70;;;;;;4986638;28;20183;-85
2021/07/05 09:41:52;;;;;;;2.70;2.50;;;19.00;84.00;;;;;;4986469;28;20214;-84
2021/07/05 09:44:20;;;;;;;4.15;3.05;;;19.30;83.40;;;;;;4988398;28;20206;-84
2021/07/05 09:46:50;;;;;;;2.28;2.05;;;19.40;82.00;;;;;;5004529;28;20181;-84
2021/07/05 09:49:25;;;;;;;3.55;2.00;;;19.50;81.10;;;;;;5004987;28;20172;-85
2021/07/05 09:52:26;;;;;;;4.35;2.83;;;19.70;79.10;;;;;;5003848;28;20217;-84
2021/07/05 09:55:05;;;;;;;2.28;2.08;;;20.00;78.70;;;;;;4984545;28;20206;-84
2021/07/05 09:58:06;;;;;;;3.55;2.47;;;20.30;78.70;;;;;;5004618;28;20286;-84
2021/07/05 10:00:38;;;;;;;3.65;2.97;;;20.90;77.30;;;;;;4994977;28;20247;-84
2021/07/05 10:03:09;;;;;;;5.13;2.20;;;21.00;74.90;;;;;;5022345;28;20293;-84
2021/07/05 10:05:43;;;;;;;5.50;2.27;;;21.30;75.20;;;;;;5007314;28;20414;-84
2021/07/05 10:08:14;;;;;;;5.53;2.40;;;21.40;73.10;;;;;;5007668;28;20419;-84
2021/07/05 10:10:49;;;;;;;2.40;2.20;;;21.20;70.70;;;;;;5007254;28;20442;-84
2021/07/05 10:13:21;;;;;;;5.80;2.00;;;21.00;71.00;;;;;;5006813;28;20445;-84
2021/07/05 10:15:48;;;;;;;4.90;2.90;;;21.10;71.80;;;;;;5007867;28;20430;-84
2021/07/05 10:18:14;;;;;;;4.97;3.97;;;21.00;71.50;;;;;;5005181;28;20421;-84
2021/07/05 10:20:43;;;;;;;3.03;2.70;;;20.90;72.40;;;;;;5000749;28;20433;-84
2021/07/05 10:23:14;;;;;;;3.77;2.73;;;20.80;71.20;;;;;;5002642;28;20872;-84
2021/07/05 10:25:43;;;;;;;2.77;2.57;;;20.90;71.00;;;;;;5018633;28;20418;-84
2021/07/05 10:28:10;;;;;;;8.00;3.37;;;21.10;70.80;;;;;;5003220;28;20442;-84
2021/07/05 10:30:36;;;;;;;9.93;4.57;;;21.20;69.60;;;;;;5001089;28;20429;-84
2021/07/05 10:33:03;;;;;;;3.20;2.83;;;21.10;69.40;;;;;;5002628;28;20830;-84
2021/07/05 10:35:37;;;;;;;3.80;3.40;;;20.80;69.20;;;;;;5002769;28;20438;-84
2021/07/05 10:38:12;;;;;;;6.33;2.97;;;21.00;70.40;;;;;;4995018;28;20446;-84
2021/07/05 10:40:45;;;;;;;4.03;2.33;;;21.00;69.30;;;;;;4985214;28;20512;-84
2021/07/05 10:43:15;;;;;;;4.60;2.50;;;21.40;69.50;;;;;;5001479;28;20470;-83
2021/07/05 10:45:59;;;;;;;3.87;2.73;;;21.50;69.30;;;;;;4985729;28;20426;-84
2021/07/05 10:48:31;;;;;;;10.20;3.23;;;21.50;66.70;;;;;;5002749;28;20433;-84
2021/07/05 10:50:58;;;;;;;6.30;2.70;;;21.60;66.90;;;;;;4985492;28;20449;-84
2021/07/05 10:53:33;;;;;;;4.53;3.63;;;21.90;67.00;;;;;;4985084;28;20554;-84
2021/07/05 10:56:22;;;;;;;2.93;2.43;;;22.20;65.50;;;;;;4984476;28;20425;-85
2021/07/05 10:58:48;;;;;;;4.93;2.90;;;22.40;65.80;;;;;;4984418;28;20421;-84
2021/07/05 11:01:16;;;;;;;3.60;2.67;;;22.50;65.60;;;;;;5000935;28;20474;-84
2021/07/05 11:03:42;;;;;;;4.40;2.70;;;22.50;64.70;;;;;;5002145;28;20473;-84
2021/07/05 11:06:10;;;;;;;5.77;3.67;;;22.40;63.70;;;;;;4984910;28;20414;-84
2021/07/05 11:08:44;;;;;;;4.30;2.97;;;22.40;64.10;;;;;;4984161;28;20218;-84
2021/07/05 11:11:25;;;;;;;2.87;2.67;;;22.10;63.60;;;;;;5119454;27;20637;-83
2021/07/05 11:14:16;;;;;;;6.20;2.90;;;21.90;64.20;;;;;;5118534;28;20416;-84
2021/07/05 11:17:03;;;;;;;2.83;2.47;;;22.20;65.20;;;;;;5119606;28;20401;-83
2021/07/05 11:19:31;;;;;;;5.10;2.77;;;22.30;63.80;;;;;;5119738;28;20382;-83
2021/07/05 11:22:06;;;;;;;4.80;3.03;;;22.60;62.40;;;;;;5118857;28;20430;-84
2021/07/05 11:24:37;;;;;;;2.43;2.20;;;22.70;62.30;;;;;;5119644;28;20416;-83
2021/07/05 11:27:30;;;;;;;5.90;2.77;;;22.50;62.50;;;;;;5118995;28;20489;-84
2021/07/05 11:30:11;;;;;;;3.23;2.50;;;22.30;63.80;;;;;;5122796;28;20445;-84
2021/07/05 11:32:39;;;;;;;5.93;2.73;;;22.20;66.40;;;;;;5118698;28;20810;-83
2021/07/05 11:35:28;;;;;;;5.87;3.27;;;22.00;69.40;;;;;;5118199;28;20466;-83
2021/07/05 11:37:56;;;;;;;6.03;3.70;;;21.70;70.10;;;;;;5118565;28;20413;-83
2021/07/05 11:40:43;;;;;;;4.17;3.03;;;21.60;69.90;;;;;;5117705;28;20469;-83
2021/07/05 11:43:10;;;;;;;7.37;3.33;;;21.50;69.10;;;;;;5119387;28;20401;-83
2021/07/05 11:45:49;;;;;;;2.83;2.63;;;21.60;68.00;;;;;;5119583;28;20413;-83
2021/07/05 11:48:39;;;;;;;2.53;2.33;;;21.60;66.70;;;;;;5118099;28;20405;-83
2021/07/05 11:51:16;;;;;;;4.07;2.73;;;21.80;66.60;;;;;;5134759;27;20824;-83
2021/07/05 11:53:46;;;;;;;4.70;2.90;;;21.90;66.00;;;;;;5135963;27;20420;-84
2021/07/05 11:56:38;;;;;;;4.20;2.60;;;22.10;65.80;;;;;;5140413;27;20458;-83
2021/07/05 11:59:10;;;;;;;3.60;2.50;;;22.30;65.20;;;;;;5142148;28;20404;-83
2021/07/05 12:01:37;;;;;;;2.17;1.97;;;22.30;63.80;;;;;;5137727;28;20611;-83
2021/07/05 12:04:05;;;;;;;3.60;2.30;;;22.50;63.20;;;;;;5138651;27;20461;-83
2021/07/05 12:06:31;;;;;;;3.37;2.47;;;22.50;63.20;;;;;;5139845;27;20914;-83
2021/07/05 12:09:04;;;;;;;3.43;2.60;;;22.50;63.10;;;;;;5137710;27;20397;-83
2021/07/05 12:11:35;;;;;;;6.30;2.70;;;22.30;62.60;;;;;;5129484;28;20516;-84
2021/07/05 12:14:07;;;;;;;4.80;2.80;;;21.90;63.70;;;;;;5133613;28;20794;-83
2021/07/05 12:16:33;;;;;;;2.80;2.20;;;21.70;64.30;;;;;;5125151;28;20421;-83
2021/07/05 12:19:02;;;;;;;3.40;2.50;;;21.40;65.40;;;;;;5118283;28;20432;-83
2021/07/05 12:21:38;;;;;;;4.60;2.50;;;21.20;66.20;;;;;;5113384;28;20430;-83
2021/07/05 12:24:12;;;;;;;4.63;2.40;;;21.00;67.60;;;;;;5108952;28;20409;-84
2021/07/05 12:26:47;;;;;;;6.18;3.10;;;21.00;69.40;;;;;;5107540;28;20397;-83
2021/07/05 12:29:25;;;;;;;4.93;2.95;;;20.70;71.10;;;;;;5104663;28;20292;-83
2021/07/05 12:31:52;;;;;;;4.15;3.50;;;20.50;74.10;;;;;;5104182;28;20240;-84
2021/07/05 12:34:43;;;;;;;4.15;3.28;;;20.40;76.60;;;;;;5102933;28;20183;-83
2021/07/05 12:37:19;;;;;;;4.10;3.83;;;20.20;78.50;;;;;;5104331;28;20213;-83
2021/07/05 12:39:57;;;;;;;4.40;3.67;;;20.10;79.80;;;;;;5104564;28;20194;-83
2021/07/05 12:42:46;;;;;;;6.97;4.40;;;19.90;80.10;;;;;;5104878;28;20188;-83
2021/07/05 12:45:18;;;;;;;6.00;4.35;;;19.90;80.70;;;;;;5091070;28;20583;-83
2021/07/05 12:48:16;;;;;;;4.53;4.22;;;19.90;81.00;;;;;;5103706;28;20202;-83
2021/07/05 12:51:00;;;;;;;6.05;3.50;;;20.00;81.60;;;;;;5083583;28;20288;-83
2021/07/05 12:53:40;;;;;;;5.07;4.07;;;20.00;82.40;;;;;;5083959;28;20177;-83
2021/07/05 12:56:25;;;;;;;6.20;4.63;;;20.10;83.00;;;;;;5083845;28;20176;-83
2021/07/05 12:58:56;;;;;;;5.53;4.30;;;20.20;83.30;;;;;;5083330;28;20175;-84